sensor_id;sensor_type;location;lat;lon;timestamp;pressure;altitude;pressure_sealevel;temperature;humidity
17649;BME280;8943;51.110;-4.158;2022-12-18T00:00:22;101291.19;;;7.55;49.97
17649;BME280;8943;51.110;-4.158;2022-12-18T00:02:52;101293.69;;;7.58;49.75
17649;BME280;8943;51.110;-4.158;2022-12-18T00:05:21;101289.16;;;7.60;49.97
17649;BME280;8943;51.110;-4.158;2022-12-18T00:07:49;101277.47;;;7.64;49.78
17649;BME280;8943;51.110;-4.158;2022-12-18T00:10:18;101272.25;;;7.62;49.69
17649;BME280;8943;51.110;-4.158;2022-12-18T00:12:46;101268.56;;;7.65;49.71
17649;BME280;8943;51.110;-4.158;2022-12-18T00:15:15;101278.22;;;7.66;49.68
17649;BME280;8943;51.110;-4.158;2022-12-18T00:17:43;101275.66;;;7.64;49.75
17649;BME280;8943;51.110;-4.158;2022-12-18T00:20:14;101278.22;;;7.66;49.84
17649;BME280;8943;51.110;-4.158;2022-12-18T00:22:47;101271.16;;;7.66;49.41
17649;BME280;8943;51.110;-4.158;2022-12-18T00:25:16;101266.75;;;7.65;49.66
17649;BME280;8943;51.110;-4.158;2022-12-18T00:27:44;101275.75;;;7.63;49.77
17649;BME280;8943;51.110;-4.158;2022-12-18T00:30:13;101274.03;;;7.62;49.56
17649;BME280;8943;51.110;-4.158;2022-12-18T00:32:41;101267.00;;;7.61;49.50
17649;BME280;8943;51.110;-4.158;2022-12-18T00:35:10;101268.88;;;7.59;49.93
17649;BME280;8943;51.110;-4.158;2022-12-18T00:37:40;101274.34;;;7.56;49.53
17649;BME280;8943;51.110;-4.158;2022-12-18T00:40:10;101280.59;;;7.55;49.61
17649;BME280;8943;51.110;-4.158;2022-12-18T00:42:39;101276.38;;;7.51;49.54
17649;BME280;8943;51.110;-4.158;2022-12-18T00:45:25;101278.25;;;7.48;49.85
17649;BME280;8943;51.110;-4.158;2022-12-18T00:47:54;101270.31;;;7.48;49.88
17649;BME280;8943;51.110;-4.158;2022-12-18T00:50:24;101259.84;;;7.45;49.87
17649;BME280;8943;51.110;-4.158;2022-12-18T00:52:54;101245.81;;;7.43;50.17
17649;BME280;8943;51.110;-4.158;2022-12-18T00:55:22;101230.88;;;7.42;49.99
17649;BME280;8943;51.110;-4.158;2022-12-18T00:57:51;101222.19;;;7.39;50.02
17649;BME280;8943;51.110;-4.158;2022-12-18T01:00:23;101216.09;;;7.37;50.01
17649;BME280;8943;51.110;-4.158;2022-12-18T01:02:51;101209.94;;;7.36;50.21
17649;BME280;8943;51.110;-4.158;2022-12-18T01:05:20;101212.59;;;7.36;50.10
17649;BME280;8943;51.110;-4.158;2022-12-18T01:07:48;101221.25;;;7.40;50.10
17649;BME280;8943;51.110;-4.158;2022-12-18T01:10:19;101220.25;;;7.42;50.21
17649;BME280;8943;51.110;-4.158;2022-12-18T01:12:47;101219.13;;;7.46;50.13
17649;BME280;8943;51.110;-4.158;2022-12-18T01:15:18;101227.72;;;7.52;50.21
17649;BME280;8943;51.110;-4.158;2022-12-18T01:17:46;101234.41;;;7.59;50.28
17649;BME280;8943;51.110;-4.158;2022-12-18T01:20:15;101226.13;;;7.65;50.13
17649;BME280;8943;51.110;-4.158;2022-12-18T01:22:44;101223.13;;;7.71;50.46
17649;BME280;8943;51.110;-4.158;2022-12-18T01:25:13;101221.13;;;7.76;50.33
17649;BME280;8943;51.110;-4.158;2022-12-18T01:27:42;101212.81;;;7.82;50.41
17649;BME280;8943;51.110;-4.158;2022-12-18T01:30:11;101230.09;;;7.89;50.27
17649;BME280;8943;51.110;-4.158;2022-12-18T01:32:40;101221.91;;;7.94;50.47
17649;BME280;8943;51.110;-4.158;2022-12-18T01:35:08;101218.06;;;7.99;50.34
17649;BME280;8943;51.110;-4.158;2022-12-18T01:37:36;101211.47;;;8.07;50.50
17649;BME280;8943;51.110;-4.158;2022-12-18T01:40:06;101204.97;;;8.12;50.26
17649;BME280;8943;51.110;-4.158;2022-12-18T01:42:35;101192.41;;;8.16;50.26
17649;BME280;8943;51.110;-4.158;2022-12-18T01:45:09;101185.09;;;8.19;50.34
17649;BME280;8943;51.110;-4.158;2022-12-18T01:47:52;101180.31;;;8.26;50.41
17649;BME280;8943;51.110;-4.158;2022-12-18T01:50:25;101169.50;;;8.29;49.98
17649;BME280;8943;51.110;-4.158;2022-12-18T01:52:56;101178.06;;;8.34;50.21
17649;BME280;8943;51.110;-4.158;2022-12-18T01:55:28;101163.88;;;8.35;50.08
17649;BME280;8943;51.110;-4.158;2022-12-18T01:57:59;101157.66;;;8.36;49.95
17649;BME280;8943;51.110;-4.158;2022-12-18T02:00:30;101154.78;;;8.39;50.44
17649;BME280;8943;51.110;-4.158;2022-12-18T02:02:59;101151.88;;;8.44;50.23
17649;BME280;8943;51.110;-4.158;2022-12-18T02:05:35;101141.25;;;8.44;50.13
17649;BME280;8943;51.110;-4.158;2022-12-18T02:08:10;101150.75;;;8.48;50.13
17649;BME280;8943;51.110;-4.158;2022-12-18T02:10:47;101145.28;;;8.51;49.90
17649;BME280;8943;51.110;-4.158;2022-12-18T02:13:29;101151.34;;;8.53;50.09
17649;BME280;8943;51.110;-4.158;2022-12-18T02:16:08;101143.31;;;8.55;50.16
17649;BME280;8943;51.110;-4.158;2022-12-18T02:18:43;101136.94;;;8.57;50.06
17649;BME280;8943;51.110;-4.158;2022-12-18T02:21:24;101138.00;;;8.55;49.93
17649;BME280;8943;51.110;-4.158;2022-12-18T02:24:01;101153.66;;;8.59;50.26
17649;BME280;8943;51.110;-4.158;2022-12-18T02:26:40;101160.41;;;8.65;50.06
17649;BME280;8943;51.110;-4.158;2022-12-18T02:29:13;101157.75;;;8.65;50.24
17649;BME280;8943;51.110;-4.158;2022-12-18T02:31:46;101162.97;;;8.66;50.09
17649;BME280;8943;51.110;-4.158;2022-12-18T02:34:18;101176.75;;;8.73;50.05
17649;BME280;8943;51.110;-4.158;2022-12-18T02:36:49;101166.06;;;8.74;50.02
17649;BME280;8943;51.110;-4.158;2022-12-18T02:39:20;101150.88;;;8.76;49.96
17649;BME280;8943;51.110;-4.158;2022-12-18T02:41:51;101156.97;;;8.79;49.83
17649;BME280;8943;51.110;-4.158;2022-12-18T02:44:19;101167.28;;;8.83;49.92
17649;BME280;8943;51.110;-4.158;2022-12-18T02:46:50;101170.81;;;8.84;49.75
17649;BME280;8943;51.110;-4.158;2022-12-18T02:49:28;101167.38;;;8.82;49.99
17649;BME280;8943;51.110;-4.158;2022-12-18T02:52:07;101160.19;;;8.84;49.99
17649;BME280;8943;51.110;-4.158;2022-12-18T02:54:45;101157.28;;;8.88;50.22
17649;BME280;8943;51.110;-4.158;2022-12-18T02:57:24;101148.50;;;8.86;49.76
17649;BME280;8943;51.110;-4.158;2022-12-18T03:00:02;101146.63;;;8.88;49.94
17649;BME280;8943;51.110;-4.158;2022-12-18T03:02:37;101142.19;;;8.89;49.73
17649;BME280;8943;51.110;-4.158;2022-12-18T03:05:11;101145.41;;;8.94;49.76
17649;BME280;8943;51.110;-4.158;2022-12-18T03:07:44;101134.69;;;8.95;49.72
17649;BME280;8943;51.110;-4.158;2022-12-18T03:10:18;101126.72;;;8.95;49.64
17649;BME280;8943;51.110;-4.158;2022-12-18T03:12:52;101121.22;;;8.98;50.06
17649;BME280;8943;51.110;-4.158;2022-12-18T03:15:24;101103.53;;;8.97;49.68
17649;BME280;8943;51.110;-4.158;2022-12-18T03:17:56;101087.69;;;8.96;49.91
17649;BME280;8943;51.110;-4.158;2022-12-18T03:20:29;101082.47;;;8.94;49.55
17649;BME280;8943;51.110;-4.158;2022-12-18T03:23:06;101075.53;;;8.92;49.89
17649;BME280;8943;51.110;-4.158;2022-12-18T03:25:39;101070.31;;;8.90;49.69
17649;BME280;8943;51.110;-4.158;2022-12-18T03:28:14;101070.16;;;8.93;49.96
17649;BME280;8943;51.110;-4.158;2022-12-18T03:30:45;101062.19;;;8.93;50.01
17649;BME280;8943;51.110;-4.158;2022-12-18T03:33:16;101060.16;;;8.97;49.87
17649;BME280;8943;51.110;-4.158;2022-12-18T03:35:47;101065.13;;;9.03;49.72
17649;BME280;8943;51.110;-4.158;2022-12-18T03:38:15;101055.91;;;9.09;50.02
17649;BME280;8943;51.110;-4.158;2022-12-18T03:40:51;101060.09;;;9.13;50.02
17649;BME280;8943;51.110;-4.158;2022-12-18T03:43:34;101049.47;;;9.13;49.81
17649;BME280;8943;51.110;-4.158;2022-12-18T03:46:10;101041.19;;;9.17;49.89
17649;BME280;8943;51.110;-4.158;2022-12-18T03:48:43;101032.28;;;9.18;49.63
17649;BME280;8943;51.110;-4.158;2022-12-18T03:51:17;101021.44;;;9.21;49.70
17649;BME280;8943;51.110;-4.158;2022-12-18T03:53:51;101005.19;;;9.26;49.80
17649;BME280;8943;51.110;-4.158;2022-12-18T03:56:22;101012.97;;;9.29;49.82
17649;BME280;8943;51.110;-4.158;2022-12-18T03:58:55;101003.00;;;9.33;49.72
17649;BME280;8943;51.110;-4.158;2022-12-18T04:01:29;100994.81;;;9.36;49.89
17649;BME280;8943;51.110;-4.158;2022-12-18T04:03:59;100996.44;;;9.38;50.00
17649;BME280;8943;51.110;-4.158;2022-12-18T04:06:29;100987.31;;;9.42;49.82
17649;BME280;8943;51.110;-4.158;2022-12-18T04:08:57;100980.75;;;9.48;49.86
17649;BME280;8943;51.110;-4.158;2022-12-18T04:11:26;100974.34;;;9.50;49.78
17649;BME280;8943;51.110;-4.158;2022-12-18T04:13:57;100981.19;;;9.54;49.79
17649;BME280;8943;51.110;-4.158;2022-12-18T04:16:28;100975.69;;;9.58;49.87
17649;BME280;8943;51.110;-4.158;2022-12-18T04:18:56;100950.66;;;9.60;49.83
17649;BME280;8943;51.110;-4.158;2022-12-18T04:21:24;100951.44;;;9.62;49.89
17649;BME280;8943;51.110;-4.158;2022-12-18T04:23:52;100938.22;;;9.61;49.96
17649;BME280;8943;51.110;-4.158;2022-12-18T04:26:20;100951.22;;;9.65;49.81
17649;BME280;8943;51.110;-4.158;2022-12-18T04:28:48;100944.31;;;9.63;49.90
17649;BME280;8943;51.110;-4.158;2022-12-18T04:31:18;100932.72;;;9.64;49.78
17649;BME280;8943;51.110;-4.158;2022-12-18T04:33:46;100939.53;;;9.68;50.09
17649;BME280;8943;51.110;-4.158;2022-12-18T04:36:14;100940.38;;;9.68;49.83
17649;BME280;8943;51.110;-4.158;2022-12-18T04:38:42;100935.50;;;9.75;50.21
17649;BME280;8943;51.110;-4.158;2022-12-18T04:41:13;100933.81;;;9.74;49.95
17649;BME280;8943;51.110;-4.158;2022-12-18T04:43:41;100942.53;;;9.76;49.72
17649;BME280;8943;51.110;-4.158;2022-12-18T04:46:09;100937.00;;;9.79;49.92
17649;BME280;8943;51.110;-4.158;2022-12-18T04:48:39;100928.91;;;9.80;49.93
17649;BME280;8943;51.110;-4.158;2022-12-18T04:51:07;100943.66;;;9.86;49.87
17649;BME280;8943;51.110;-4.158;2022-12-18T04:53:35;100938.94;;;9.90;49.81
17649;BME280;8943;51.110;-4.158;2022-12-18T04:56:05;100917.75;;;9.88;49.79
17649;BME280;8943;51.110;-4.158;2022-12-18T04:58:34;100912.31;;;9.90;49.85
17649;BME280;8943;51.110;-4.158;2022-12-18T05:01:03;100912.97;;;9.93;49.82
17649;BME280;8943;51.110;-4.158;2022-12-18T05:03:31;100909.34;;;9.94;49.94
17649;BME280;8943;51.110;-4.158;2022-12-18T05:06:01;100913.84;;;9.94;49.81
17649;BME280;8943;51.110;-4.158;2022-12-18T05:08:29;100913.72;;;9.95;49.81
17649;BME280;8943;51.110;-4.158;2022-12-18T05:11:01;100907.66;;;9.93;49.84
17649;BME280;8943;51.110;-4.158;2022-12-18T05:13:30;100901.59;;;9.91;49.70
17649;BME280;8943;51.110;-4.158;2022-12-18T05:15:58;100899.56;;;9.95;50.03
17649;BME280;8943;51.110;-4.158;2022-12-18T05:18:27;100897.88;;;9.94;49.75
17649;BME280;8943;51.110;-4.158;2022-12-18T05:20:55;100889.16;;;9.92;49.93
17649;BME280;8943;51.110;-4.158;2022-12-18T05:23:25;100896.03;;;9.94;50.19
17649;BME280;8943;51.110;-4.158;2022-12-18T05:25:54;100895.31;;;9.92;49.77
17649;BME280;8943;51.110;-4.158;2022-12-18T05:28:24;100890.84;;;9.93;49.83
17649;BME280;8943;51.110;-4.158;2022-12-18T05:30:54;100885.53;;;9.93;49.90
17649;BME280;8943;51.110;-4.158;2022-12-18T05:33:24;100887.22;;;9.94;50.20
17649;BME280;8943;51.110;-4.158;2022-12-18T05:35:53;100886.25;;;9.95;50.17
17649;BME280;8943;51.110;-4.158;2022-12-18T05:38:23;100892.44;;;9.95;50.05
17649;BME280;8943;51.110;-4.158;2022-12-18T05:40:53;100887.22;;;9.94;50.21
17649;BME280;8943;51.110;-4.158;2022-12-18T05:43:24;100879.13;;;9.95;50.12
17649;BME280;8943;51.110;-4.158;2022-12-18T05:45:53;100879.53;;;9.89;50.37
17649;BME280;8943;51.110;-4.158;2022-12-18T05:48:22;100890.19;;;9.89;50.20
17649;BME280;8943;51.110;-4.158;2022-12-18T05:50:50;100892.75;;;9.91;50.22
17649;BME280;8943;51.110;-4.158;2022-12-18T05:53:20;100892.84;;;9.89;50.31
17649;BME280;8943;51.110;-4.158;2022-12-18T05:55:48;100894.00;;;9.85;50.48
17649;BME280;8943;51.110;-4.158;2022-12-18T05:58:17;100895.28;;;9.79;50.35
17649;BME280;8943;51.110;-4.158;2022-12-18T06:00:46;100883.78;;;9.79;50.69
17649;BME280;8943;51.110;-4.158;2022-12-18T06:03:14;100903.38;;;9.78;50.72
17649;BME280;8943;51.110;-4.158;2022-12-18T06:05:44;100889.22;;;9.77;50.78
17649;BME280;8943;51.110;-4.158;2022-12-18T06:08:13;100898.38;;;9.73;50.97
17649;BME280;8943;51.110;-4.158;2022-12-18T06:10:41;100886.97;;;9.71;50.88
17649;BME280;8943;51.110;-4.158;2022-12-18T06:13:09;100875.47;;;9.71;51.03
17649;BME280;8943;51.110;-4.158;2022-12-18T06:15:39;100863.13;;;9.70;50.99
17649;BME280;8943;51.110;-4.158;2022-12-18T06:18:07;100871.09;;;9.70;51.34
17649;BME280;8943;51.110;-4.158;2022-12-18T06:20:35;100865.91;;;9.68;51.18
17649;BME280;8943;51.110;-4.158;2022-12-18T06:23:06;100850.91;;;9.67;51.14
17649;BME280;8943;51.110;-4.158;2022-12-18T06:25:37;100849.09;;;9.68;51.39
17649;BME280;8943;51.110;-4.158;2022-12-18T06:28:05;100856.94;;;9.69;51.36
17649;BME280;8943;51.110;-4.158;2022-12-18T06:30:34;100863.13;;;9.70;51.11
17649;BME280;8943;51.110;-4.158;2022-12-18T06:33:04;100873.69;;;9.71;51.41
17649;BME280;8943;51.110;-4.158;2022-12-18T06:35:33;100892.31;;;9.71;51.74
17649;BME280;8943;51.110;-4.158;2022-12-18T06:38:01;100884.31;;;9.71;51.77
17649;BME280;8943;51.110;-4.158;2022-12-18T06:40:29;100873.56;;;9.73;51.58
17649;BME280;8943;51.110;-4.158;2022-12-18T06:42:58;100861.13;;;9.73;51.57
17649;BME280;8943;51.110;-4.158;2022-12-18T06:45:26;100851.31;;;9.74;51.76
17649;BME280;8943;51.110;-4.158;2022-12-18T06:47:55;100845.88;;;9.75;51.57
17649;BME280;8943;51.110;-4.158;2022-12-18T06:50:26;100824.72;;;9.74;51.84
17649;BME280;8943;51.110;-4.158;2022-12-18T06:52:55;100791.94;;;9.73;52.06
17649;BME280;8943;51.110;-4.158;2022-12-18T06:55:24;100778.75;;;9.72;51.91
17649;BME280;8943;51.110;-4.158;2022-12-18T06:57:52;100767.25;;;9.71;52.19
17649;BME280;8943;51.110;-4.158;2022-12-18T07:00:20;100770.75;;;9.72;51.85
17649;BME280;8943;51.110;-4.158;2022-12-18T07:02:48;100769.16;;;9.69;52.04
17649;BME280;8943;51.110;-4.158;2022-12-18T07:05:16;100756.16;;;9.65;52.00
17649;BME280;8943;51.110;-4.158;2022-12-18T07:07:46;100759.78;;;9.64;52.51
17649;BME280;8943;51.110;-4.158;2022-12-18T07:10:14;100765.22;;;9.62;52.57
17649;BME280;8943;51.110;-4.158;2022-12-18T07:12:42;100760.75;;;9.63;52.60
17649;BME280;8943;51.110;-4.158;2022-12-18T07:15:10;100766.06;;;9.63;52.50
17649;BME280;8943;51.110;-4.158;2022-12-18T07:17:38;100767.78;;;9.64;52.35
17649;BME280;8943;51.110;-4.158;2022-12-18T07:20:07;100764.06;;;9.66;52.73
17649;BME280;8943;51.110;-4.158;2022-12-18T07:22:36;100756.94;;;9.67;53.01
17649;BME280;8943;51.110;-4.158;2022-12-18T07:25:07;100755.00;;;9.69;52.63
17649;BME280;8943;51.110;-4.158;2022-12-18T07:27:35;100753.84;;;9.73;52.65
17649;BME280;8943;51.110;-4.158;2022-12-18T07:30:04;100735.22;;;9.73;52.57
17649;BME280;8943;51.110;-4.158;2022-12-18T07:32:32;100741.25;;;9.75;52.79
17649;BME280;8943;51.110;-4.158;2022-12-18T07:35:00;100732.31;;;9.76;52.74
17649;BME280;8943;51.110;-4.158;2022-12-18T07:37:28;100724.34;;;9.76;52.78
17649;BME280;8943;51.110;-4.158;2022-12-18T07:39:56;100695.19;;;9.74;52.42
17649;BME280;8943;51.110;-4.158;2022-12-18T07:42:26;100689.97;;;9.73;52.99
17649;BME280;8943;51.110;-4.158;2022-12-18T07:45:02;100688.16;;;9.73;52.69
17649;BME280;8943;51.110;-4.158;2022-12-18T07:47:30;100702.44;;;9.72;52.93
17649;BME280;8943;51.110;-4.158;2022-12-18T07:49:58;100699.97;;;9.69;53.01
17649;BME280;8943;51.110;-4.158;2022-12-18T07:52:26;100705.19;;;9.71;53.11
17649;BME280;8943;51.110;-4.158;2022-12-18T07:54:54;100690.19;;;9.70;53.15
17649;BME280;8943;51.110;-4.158;2022-12-18T07:57:22;100683.16;;;9.69;53.21
17649;BME280;8943;51.110;-4.158;2022-12-18T08:00:13;100680.63;;;9.67;53.45
17649;BME280;8943;51.110;-4.158;2022-12-18T08:02:41;100683.16;;;9.69;53.36
17649;BME280;8943;51.110;-4.158;2022-12-18T08:05:09;100678.81;;;9.68;53.27
17649;BME280;8943;51.110;-4.158;2022-12-18T08:07:37;100662.72;;;9.69;53.49
17649;BME280;8943;51.110;-4.158;2022-12-18T08:10:07;100653.69;;;9.72;53.61
17649;BME280;8943;51.110;-4.158;2022-12-18T08:12:35;100651.78;;;9.74;53.49
17649;BME280;8943;51.110;-4.158;2022-12-18T08:15:04;100656.03;;;9.76;53.56
17649;BME280;8943;51.110;-4.158;2022-12-18T08:17:33;100657.72;;;9.77;53.60
17649;BME280;8943;51.110;-4.158;2022-12-18T08:20:02;100648.56;;;9.82;53.85
17649;BME280;8943;51.110;-4.158;2022-12-18T08:22:33;100635.16;;;9.83;53.79
17649;BME280;8943;51.110;-4.158;2022-12-18T08:25:01;100626.09;;;9.86;53.80
17649;BME280;8943;51.110;-4.158;2022-12-18T08:27:31;100613.66;;;9.86;53.72
17649;BME280;8943;51.110;-4.158;2022-12-18T08:30:01;100611.72;;;9.88;53.87
17649;BME280;8943;51.110;-4.158;2022-12-18T08:32:30;100599.91;;;9.92;53.87
17649;BME280;8943;51.110;-4.158;2022-12-18T08:35:00;100584.66;;;9.94;53.90
17649;BME280;8943;51.110;-4.158;2022-12-18T08:37:28;100579.44;;;9.93;53.98
17649;BME280;8943;51.110;-4.158;2022-12-18T08:39:56;100575.69;;;9.95;54.06
17649;BME280;8943;51.110;-4.158;2022-12-18T08:42:24;100584.44;;;9.97;54.05
17649;BME280;8943;51.110;-4.158;2022-12-18T08:45:10;100568.34;;;9.99;54.10
17649;BME280;8943;51.110;-4.158;2022-12-18T08:47:38;100565.47;;;10.02;54.13
17649;BME280;8943;51.110;-4.158;2022-12-18T08:50:09;100585.47;;;10.07;54.41
17649;BME280;8943;51.110;-4.158;2022-12-18T08:52:38;100590.66;;;10.09;54.17
17649;BME280;8943;51.110;-4.158;2022-12-18T08:55:08;100583.53;;;10.10;54.42
17649;BME280;8943;51.110;-4.158;2022-12-18T08:57:36;100577.25;;;10.11;54.39
17649;BME280;8943;51.110;-4.158;2022-12-18T09:00:05;100589.59;;;10.12;54.71
17649;BME280;8943;51.110;-4.158;2022-12-18T09:02:33;100593.97;;;10.13;54.39
17649;BME280;8943;51.110;-4.158;2022-12-18T09:05:02;100595.66;;;10.14;54.53
17649;BME280;8943;51.110;-4.158;2022-12-18T09:07:32;100586.47;;;10.18;54.29
17649;BME280;8943;51.110;-4.158;2022-12-18T09:10:00;100575.50;;;10.22;54.62
17649;BME280;8943;51.110;-4.158;2022-12-18T09:12:28;100571.84;;;10.23;54.55
17649;BME280;8943;51.110;-4.158;2022-12-18T09:14:56;100557.50;;;10.26;54.66
17649;BME280;8943;51.110;-4.158;2022-12-18T09:17:24;100543.22;;;10.27;54.60
17649;BME280;8943;51.110;-4.158;2022-12-18T09:19:52;100535.03;;;10.30;54.56
17649;BME280;8943;51.110;-4.158;2022-12-18T09:22:21;100524.13;;;10.33;55.12
17649;BME280;8943;51.110;-4.158;2022-12-18T09:24:50;100531.63;;;10.39;54.83
17649;BME280;8943;51.110;-4.158;2022-12-18T09:27:18;100534.81;;;10.44;55.06
17649;BME280;8943;51.110;-4.158;2022-12-18T09:29:46;100530.09;;;10.48;54.73
17649;BME280;8943;51.110;-4.158;2022-12-18T09:32:14;100521.75;;;10.52;54.83
17649;BME280;8943;51.110;-4.158;2022-12-18T09:34:48;100508.22;;;10.55;54.85
17649;BME280;8943;51.110;-4.158;2022-12-18T09:37:16;100506.25;;;10.57;54.98
17649;BME280;8943;51.110;-4.158;2022-12-18T09:39:44;100497.06;;;10.62;54.92
17649;BME280;8943;51.110;-4.158;2022-12-18T09:42:20;100488.59;;;10.68;55.32
17649;BME280;8943;51.110;-4.158;2022-12-18T09:44:50;100472.50;;;10.69;55.04
17649;BME280;8943;51.110;-4.158;2022-12-18T09:47:22;100455.19;;;10.75;55.54
17649;BME280;8943;51.110;-4.158;2022-12-18T09:49:56;100446.00;;;10.79;55.15
17649;BME280;8943;51.110;-4.158;2022-12-18T09:52:29;100442.97;;;10.83;55.45
17649;BME280;8943;51.110;-4.158;2022-12-18T09:55:03;100431.06;;;10.88;55.52
17649;BME280;8943;51.110;-4.158;2022-12-18T09:57:39;100436.88;;;10.93;55.27
17649;BME280;8943;51.110;-4.158;2022-12-18T10:00:15;100439.19;;;10.97;55.37
17649;BME280;8943;51.110;-4.158;2022-12-18T10:02:45;100442.31;;;11.02;55.57
17649;BME280;8943;51.110;-4.158;2022-12-18T10:05:17;100417.88;;;11.08;55.27
17649;BME280;8943;51.110;-4.158;2022-12-18T10:07:55;100420.88;;;11.15;55.76
17649;BME280;8943;51.110;-4.158;2022-12-18T10:10:35;100416.72;;;11.22;55.51
17649;BME280;8943;51.110;-4.158;2022-12-18T10:13:15;100410.78;;;11.30;55.51
17649;BME280;8943;51.110;-4.158;2022-12-18T10:15:54;100413.06;;;11.34;55.78
17649;BME280;8943;51.110;-4.158;2022-12-18T10:18:35;100404.69;;;11.39;55.69
17649;BME280;8943;51.110;-4.158;2022-12-18T10:21:11;100398.84;;;11.45;55.57
17649;BME280;8943;51.110;-4.158;2022-12-18T10:23:48;100389.63;;;11.49;55.80
17649;BME280;8943;51.110;-4.158;2022-12-18T10:26:19;100391.69;;;11.57;55.70
17649;BME280;8943;51.110;-4.158;2022-12-18T10:28:51;100377.94;;;11.62;55.69
17649;BME280;8943;51.110;-4.158;2022-12-18T10:31:21;100375.75;;;11.67;55.69
17649;BME280;8943;51.110;-4.158;2022-12-18T10:33:50;100378.75;;;11.73;55.63
17649;BME280;8943;51.110;-4.158;2022-12-18T10:36:20;100358.81;;;11.77;55.60
17649;BME280;8943;51.110;-4.158;2022-12-18T10:38:49;100365.50;;;11.83;55.89
17649;BME280;8943;51.110;-4.158;2022-12-18T10:41:25;100363.28;;;11.88;56.02
17649;BME280;8943;51.110;-4.158;2022-12-18T10:44:18;100359.09;;;11.95;56.00
17649;BME280;8943;51.110;-4.158;2022-12-18T10:46:49;100355.19;;;11.99;56.01
17649;BME280;8943;51.110;-4.158;2022-12-18T10:49:21;100351.03;;;12.06;56.08
17649;BME280;8943;51.110;-4.158;2022-12-18T10:51:51;100343.19;;;12.15;56.16
17649;BME280;8943;51.110;-4.158;2022-12-18T10:54:34;100335.63;;;12.20;56.23
17649;BME280;8943;51.110;-4.158;2022-12-18T10:57:16;100341.91;;;12.30;55.85
17649;BME280;8943;51.110;-4.158;2022-12-18T10:59:53;100334.34;;;12.35;56.11
17649;BME280;8943;51.110;-4.158;2022-12-18T11:02:27;100330.13;;;12.42;56.28
17649;BME280;8943;51.110;-4.158;2022-12-18T11:04:56;100319.75;;;12.49;56.22
17649;BME280;8943;51.110;-4.158;2022-12-18T11:07:24;100311.66;;;12.60;56.31
17649;BME280;8943;51.110;-4.158;2022-12-18T11:10:00;100309.41;;;12.65;56.29
17649;BME280;8943;51.110;-4.158;2022-12-18T11:12:28;100301.25;;;12.67;56.41
17649;BME280;8943;51.110;-4.158;2022-12-18T11:14:58;100297.06;;;12.74;56.51
17649;BME280;8943;51.110;-4.158;2022-12-18T11:17:29;100288.59;;;12.78;56.44
17649;BME280;8943;51.110;-4.158;2022-12-18T11:19:58;100297.63;;;12.87;56.55
17649;BME280;8943;51.110;-4.158;2022-12-18T11:22:29;100285.00;;;12.89;56.44
17649;BME280;8943;51.110;-4.158;2022-12-18T11:25:00;100271.91;;;12.96;56.40
17649;BME280;8943;51.110;-4.158;2022-12-18T11:27:52;100276.81;;;13.00;56.56
17649;BME280;8943;51.110;-4.158;2022-12-18T11:30:24;100265.56;;;13.06;56.31
17649;BME280;8943;51.110;-4.158;2022-12-18T11:32:55;100254.75;;;13.08;56.36
17649;BME280;8943;51.110;-4.158;2022-12-18T11:35:34;100248.84;;;13.14;56.59
17649;BME280;8943;51.110;-4.158;2022-12-18T11:38:12;100247.00;;;13.14;57.07
17649;BME280;8943;51.110;-4.158;2022-12-18T11:40:45;100246.44;;;13.21;56.57
17649;BME280;8943;51.110;-4.158;2022-12-18T11:43:20;100240.25;;;13.30;56.53
17649;BME280;8943;51.110;-4.158;2022-12-18T11:45:53;100229.28;;;13.33;56.76
17649;BME280;8943;51.110;-4.158;2022-12-18T11:48:25;100230.66;;;13.37;56.52
17649;BME280;8943;51.110;-4.158;2022-12-18T11:50:56;100205.47;;;13.39;56.78
17649;BME280;8943;51.110;-4.158;2022-12-18T11:53:25;100191.94;;;13.41;57.03
17649;BME280;8943;51.110;-4.158;2022-12-18T11:56:05;100197.00;;;13.44;56.73
17649;BME280;8943;51.110;-4.158;2022-12-18T11:58:46;100191.38;;;13.47;57.17
17649;BME280;8943;51.110;-4.158;2022-12-18T12:01:36;100189.22;;;13.51;57.12
17649;BME280;8943;51.110;-4.158;2022-12-18T12:04:35;100181.09;;;13.52;57.00
17649;BME280;8943;51.110;-4.158;2022-12-18T12:07:19;100177.09;;;13.56;57.16
17649;BME280;8943;51.110;-4.158;2022-12-18T12:09:57;100169.78;;;13.58;57.27
17649;BME280;8943;51.110;-4.158;2022-12-18T12:12:37;100166.81;;;13.61;57.22
17649;BME280;8943;51.110;-4.158;2022-12-18T12:15:28;100166.38;;;13.66;57.13
17649;BME280;8943;51.110;-4.158;2022-12-18T12:18:08;100172.28;;;13.70;57.20
17649;BME280;8943;51.110;-4.158;2022-12-18T12:20:47;100152.53;;;13.71;57.17
17649;BME280;8943;51.110;-4.158;2022-12-18T12:23:26;100148.03;;;13.71;57.01
17649;BME280;8943;51.110;-4.158;2022-12-18T12:26:06;100147.91;;;13.73;57.14
17649;BME280;8943;51.110;-4.158;2022-12-18T12:31:42;100135.34;;;13.73;57.20
17649;BME280;8943;51.110;-4.158;2022-12-18T12:34:20;100133.34;;;13.75;57.41
17649;BME280;8943;51.110;-4.158;2022-12-18T12:37:01;100129.56;;;13.78;57.15
17649;BME280;8943;51.110;-4.158;2022-12-18T12:39:34;100125.44;;;13.83;57.29
17649;BME280;8943;51.110;-4.158;2022-12-18T12:42:04;100127.97;;;13.85;57.50
17649;BME280;8943;51.110;-4.158;2022-12-18T12:44:54;100121.09;;;13.82;57.39
17649;BME280;8943;51.110;-4.158;2022-12-18T12:47:32;100118.09;;;13.85;57.38
17649;BME280;8943;51.110;-4.158;2022-12-18T12:50:05;100123.16;;;13.88;57.38
17649;BME280;8943;51.110;-4.158;2022-12-18T12:52:37;100117.66;;;13.90;57.45
17649;BME280;8943;51.110;-4.158;2022-12-18T12:55:14;100099.91;;;13.89;57.69
17649;BME280;8943;51.110;-4.158;2022-12-18T12:57:55;100097.78;;;13.93;57.13
17649;BME280;8943;51.110;-4.158;2022-12-18T13:00:25;100081.25;;;13.97;57.56
17649;BME280;8943;51.110;-4.158;2022-12-18T13:03:00;100089.28;;;13.97;57.47
17649;BME280;8943;51.110;-4.158;2022-12-18T13:05:39;100078.56;;;13.97;57.26
17649;BME280;8943;51.110;-4.158;2022-12-18T13:08:10;100075.56;;;14.00;57.10
17649;BME280;8943;51.110;-4.158;2022-12-18T13:10:39;100078.97;;;14.02;57.57
17649;BME280;8943;51.110;-4.158;2022-12-18T13:13:10;100080.47;;;14.05;57.58
17649;BME280;8943;51.110;-4.158;2022-12-18T13:15:44;100073.28;;;14.05;57.53
17649;BME280;8943;51.110;-4.158;2022-12-18T13:18:18;100068.63;;;14.07;57.56
17649;BME280;8943;51.110;-4.158;2022-12-18T13:20:50;100063.13;;;14.09;57.76
17649;BME280;8943;51.110;-4.158;2022-12-18T13:23:30;100057.47;;;14.12;57.47